createdAt,value
2022-11-24T00:01:24.104Z,100.00
2022-11-24T00:04:15.123Z,100.00
2022-11-24T00:06:42.561Z,100.00
2022-11-24T00:09:10.928Z,100.00
2022-11-24T00:11:38.537Z,100.00
2022-11-24T00:14:06.722Z,100.00
2022-11-24T00:16:36.669Z,100.00
2022-11-24T00:19:09.083Z,100.00
2022-11-24T00:21:38.036Z,100.00
2022-11-24T00:24:05.879Z,100.00
2022-11-24T00:26:34.961Z,100.00
2022-11-24T00:29:05.806Z,100.00
2022-11-24T00:31:37.214Z,100.00
2022-11-24T00:34:11.839Z,100.00
2022-11-24T00:36:40.237Z,100.00
2022-11-24T00:39:12.821Z,100.00
2022-11-24T00:41:40.915Z,100.00
2022-11-24T00:44:08.997Z,100.00
2022-11-24T00:46:36.563Z,100.00
2022-11-24T00:49:05.070Z,100.00
2022-11-24T00:51:33.261Z,100.00
2022-11-24T00:54:01.365Z,100.00
2022-11-24T00:56:29.906Z,100.00
2022-11-24T00:58:57.866Z,100.00
2022-11-24T01:01:27.697Z,100.00
2022-11-24T01:03:55.824Z,100.00
2022-11-24T01:06:27.355Z,100.00
2022-11-24T01:08:57.634Z,100.00
2022-11-24T01:11:52.553Z,100.00
2022-11-24T01:14:21.802Z,100.00
2022-11-24T01:16:49.500Z,100.00
2022-11-24T01:19:16.999Z,100.00
2022-11-24T01:21:44.534Z,100.00
2022-11-24T01:24:12.707Z,100.00
2022-11-24T01:26:40.450Z,100.00
2022-11-24T01:29:08.229Z,100.00
2022-11-24T01:31:37.060Z,100.00
2022-11-24T01:34:04.584Z,100.00
2022-11-24T01:36:32.091Z,100.00
2022-11-24T01:38:59.987Z,100.00
2022-11-24T01:41:27.620Z,100.00
2022-11-24T01:43:56.524Z,100.00
2022-11-24T01:46:36.464Z,100.00
2022-11-24T01:49:24.581Z,100.00
2022-11-24T01:52:17.002Z,100.00
2022-11-24T01:54:53.373Z,100.00
2022-11-24T01:57:26.484Z,100.00
2022-11-24T01:59:58.364Z,100.00
2022-11-24T02:02:29.243Z,100.00
2022-11-24T02:05:02.337Z,100.00
2022-11-24T02:07:30.823Z,100.00
2022-11-24T02:10:03.584Z,100.00
2022-11-24T02:12:31.867Z,100.00
2022-11-24T02:14:59.433Z,100.00
2022-11-24T02:17:26.848Z,100.00
2022-11-24T02:20:01.928Z,100.00
2022-11-24T02:22:50.286Z,100.00
2022-11-24T02:25:47.213Z,100.00
2022-11-24T02:28:18.876Z,100.00
2022-11-24T02:30:46.893Z,100.00
2022-11-24T02:33:14.897Z,100.00
2022-11-24T02:35:42.895Z,100.00
2022-11-24T02:38:13.570Z,100.00
2022-11-24T02:40:46.324Z,100.00
2022-11-24T02:43:17.914Z,100.00
2022-11-24T02:45:45.287Z,100.00
2022-11-24T02:48:14.775Z,100.00
2022-11-24T02:50:42.580Z,100.00
2022-11-24T02:53:10.176Z,100.00
2022-11-24T02:55:37.668Z,100.00
2022-11-24T02:58:05.823Z,100.00
2022-11-24T03:00:33.238Z,100.00
2022-11-24T03:03:00.796Z,100.00
2022-11-24T03:05:28.502Z,100.00
2022-11-24T03:07:56.039Z,100.00
2022-11-24T03:10:24.432Z,100.00
2022-11-24T03:12:52.214Z,100.00
2022-11-24T03:15:19.662Z,100.00
2022-11-24T03:17:47.134Z,100.00
2022-11-24T03:20:14.889Z,100.00
2022-11-24T03:22:42.287Z,100.00
2022-11-24T03:25:10.024Z,100.00
2022-11-24T03:27:37.746Z,100.00
2022-11-24T03:30:05.683Z,100.00
2022-11-24T03:32:33.106Z,100.00
2022-11-24T03:35:00.823Z,100.00
2022-11-24T03:37:28.220Z,100.00
2022-11-24T03:39:55.660Z,100.00
2022-11-24T03:42:23.419Z,100.00
2022-11-24T03:44:50.788Z,100.00
2022-11-24T03:47:18.139Z,100.00
2022-11-24T03:49:45.815Z,100.00
2022-11-24T03:52:13.243Z,100.00
2022-11-24T03:54:40.635Z,100.00
2022-11-24T03:57:08.683Z,100.00
2022-11-24T03:59:36.074Z,100.00
2022-11-24T04:02:03.685Z,100.00
2022-11-24T04:04:31.585Z,100.00
2022-11-24T04:06:59.431Z,100.00
2022-11-24T04:09:27.327Z,100.00
2022-11-24T04:12:13.541Z,100.00
2022-11-24T04:14:41.095Z,100.00
2022-11-24T04:17:09.145Z,100.00
2022-11-24T04:19:36.494Z,100.00
2022-11-24T04:22:04.022Z,100.00
2022-11-24T04:24:31.879Z,100.00
2022-11-24T04:26:59.349Z,100.00
2022-11-24T04:29:26.828Z,100.00
2022-11-24T04:31:54.499Z,100.00
2022-11-24T04:34:21.903Z,100.00
2022-11-24T04:36:49.324Z,100.00
2022-11-24T04:39:23.158Z,100.00
2022-11-24T04:41:53.555Z,100.00
2022-11-24T04:44:21.457Z,100.00
2022-11-24T04:46:49.088Z,100.00
2022-11-24T04:49:16.790Z,100.00
2022-11-24T04:51:44.746Z,100.00
2022-11-24T04:54:13.578Z,100.00
2022-11-24T04:56:42.304Z,100.00
2022-11-24T04:59:15.967Z,100.00
2022-11-24T05:01:44.922Z,100.00
2022-11-24T05:04:14.762Z,100.00
2022-11-24T05:06:42.528Z,100.00
2022-11-24T05:09:15.443Z,100.00
2022-11-24T05:11:44.030Z,100.00
2022-11-24T05:14:11.523Z,100.00
2022-11-24T05:16:39.038Z,100.00
2022-11-24T05:19:06.750Z,100.00
2022-11-24T05:21:34.356Z,100.00
2022-11-24T05:24:01.851Z,100.00
2022-11-24T05:26:29.597Z,100.00
2022-11-24T05:28:57.112Z,100.00
2022-11-24T05:31:24.627Z,100.00
2022-11-24T05:33:52.460Z,100.00
2022-11-24T05:36:38.538Z,100.00
2022-11-24T05:39:06.848Z,100.00
2022-11-24T05:41:34.444Z,100.00
2022-11-24T05:44:01.860Z,100.00
2022-11-24T05:46:29.613Z,100.00
2022-11-24T05:48:57.133Z,100.00
2022-11-24T05:51:24.686Z,100.00
2022-11-24T05:53:52.546Z,100.00
2022-11-24T05:56:20.029Z,100.00
2022-11-24T05:58:47.619Z,100.00
2022-11-24T06:01:15.356Z,100.00
2022-11-24T06:03:44.374Z,100.00
2022-11-24T06:06:11.856Z,100.00
2022-11-24T06:08:39.320Z,100.00
2022-11-24T06:11:19.413Z,100.00
2022-11-24T06:13:48.704Z,100.00
2022-11-24T06:16:16.734Z,100.00
2022-11-24T06:18:44.350Z,100.00
2022-11-24T06:21:12.309Z,100.00
2022-11-24T06:23:40.614Z,100.00
2022-11-24T06:26:09.609Z,100.00
2022-11-24T06:28:37.114Z,100.00
2022-11-24T06:31:06.016Z,100.00
2022-11-24T06:33:35.380Z,100.00
2022-11-24T06:36:08.188Z,100.00
2022-11-24T06:38:36.795Z,100.00
2022-11-24T06:41:07.492Z,100.00
2022-11-24T06:43:35.079Z,100.00
2022-11-24T06:46:03.374Z,100.00
2022-11-24T06:48:31.791Z,100.00
2022-11-24T06:51:01.316Z,100.00
2022-11-24T06:53:38.354Z,100.00
2022-11-24T06:56:15.286Z,100.00
2022-11-24T06:58:46.428Z,100.00
2022-11-24T07:01:22.426Z,100.00
2022-11-24T07:03:51.707Z,100.00
2022-11-24T07:06:20.379Z,100.00
2022-11-24T07:08:48.392Z,100.00
2022-11-24T07:11:19.007Z,100.00
2022-11-24T07:13:47.524Z,100.00
2022-11-24T07:16:17.708Z,100.00
2022-11-24T07:18:47.632Z,100.00
2022-11-24T07:21:15.402Z,100.00
2022-11-24T07:23:43.366Z,100.00
2022-11-24T07:26:11.480Z,100.00
2022-11-24T07:28:39.027Z,100.00
2022-11-24T07:31:11.232Z,100.00
2022-11-24T07:33:39.621Z,100.00
2022-11-24T07:36:08.791Z,100.00
2022-11-24T07:38:36.921Z,99.89
2022-11-24T07:41:07.792Z,100.00
2022-11-24T07:43:36.545Z,99.63
2022-11-24T07:46:06.487Z,99.88
2022-11-24T07:48:34.843Z,100.00
2022-11-24T07:51:04.566Z,99.85
2022-11-24T07:53:33.400Z,99.53
2022-11-24T07:56:03.181Z,99.33
2022-11-24T07:58:33.483Z,99.01
2022-11-24T08:01:18.482Z,99.78
2022-11-24T08:03:47.074Z,100.00
2022-11-24T08:06:25.084Z,99.48
2022-11-24T08:08:55.186Z,98.37
2022-11-24T08:11:23.129Z,98.23
2022-11-24T08:13:50.705Z,100.00
2022-11-24T08:16:20.250Z,98.79
2022-11-24T08:18:53.569Z,98.27
2022-11-24T08:21:23.391Z,98.79
2022-11-24T08:23:55.589Z,99.33
2022-11-24T08:26:25.074Z,97.67
2022-11-24T08:28:58.166Z,98.47
2022-11-24T08:31:32.697Z,96.47
2022-11-24T08:34:01.852Z,95.12
2022-11-24T08:36:29.908Z,94.42
2022-11-24T08:38:58.875Z,95.10
2022-11-24T08:41:27.136Z,94.00
2022-11-24T08:43:55.513Z,93.77
2022-11-24T08:46:23.985Z,94.99
2022-11-24T08:48:53.562Z,93.46
2022-11-24T08:51:24.347Z,94.16
2022-11-24T08:53:59.837Z,92.79
2022-11-24T08:56:29.964Z,92.57
2022-11-24T08:58:58.793Z,93.21
2022-11-24T09:01:30.584Z,93.79
2022-11-24T09:03:59.452Z,94.17
2022-11-24T09:06:31.009Z,92.40
2022-11-24T09:08:59.899Z,93.94
2022-11-24T09:11:27.615Z,93.21
2022-11-24T09:13:55.711Z,92.96
2022-11-24T09:16:26.855Z,92.29
2022-11-24T09:19:03.651Z,93.41
2022-11-24T09:21:39.162Z,92.52
2022-11-24T09:24:07.759Z,93.08
2022-11-24T09:26:43.022Z,92.38
2022-11-24T09:29:13.894Z,93.04
2022-11-24T09:31:41.613Z,91.94
2022-11-24T09:34:13.116Z,92.60
2022-11-24T09:36:41.067Z,91.15
2022-11-24T09:39:10.172Z,91.71
2022-11-24T09:41:43.811Z,90.59
2022-11-24T09:44:14.640Z,90.35
2022-11-24T09:47:03.694Z,90.50
2022-11-24T09:49:51.596Z,91.27
2022-11-24T09:52:33.213Z,92.94
2022-11-24T09:55:05.137Z,90.56
2022-11-24T09:57:38.662Z,89.99
2022-11-24T10:00:18.837Z,89.44
2022-11-24T10:02:49.202Z,89.61
2022-11-24T10:05:16.930Z,90.07
2022-11-24T10:08:07.702Z,88.70
2022-11-24T10:10:51.012Z,88.76
2022-11-24T10:13:37.200Z,89.57
2022-11-24T10:16:26.903Z,89.57
2022-11-24T10:19:37.897Z,89.38
2022-11-24T10:22:31.235Z,89.11
2022-11-24T10:25:16.406Z,89.12
2022-11-24T10:27:46.851Z,89.73
2022-11-24T10:30:18.222Z,89.74
2022-11-24T10:32:54.203Z,89.37
2022-11-24T10:35:28.126Z,89.21
2022-11-24T10:38:07.069Z,88.64
2022-11-24T10:43:28.475Z,90.36
2022-11-24T10:46:09.854Z,90.25
2022-11-24T10:48:43.509Z,88.45
2022-11-24T10:51:29.101Z,89.26
2022-11-24T10:54:07.181Z,88.07
2022-11-24T10:56:42.492Z,89.04
2022-11-24T10:59:25.465Z,89.83
2022-11-24T11:01:53.346Z,89.79
2022-11-24T11:04:41.392Z,89.08
2022-11-24T11:07:10.283Z,90.92
2022-11-24T11:09:38.208Z,89.40
2022-11-24T11:12:36.269Z,89.23
2022-11-24T11:15:21.514Z,90.26
2022-11-24T11:17:52.422Z,89.11
2022-11-24T11:20:42.917Z,89.20
2022-11-24T11:23:21.456Z,90.05
2022-11-24T11:25:49.190Z,90.45
2022-11-24T11:28:29.116Z,91.70
2022-11-24T11:31:22.410Z,91.62
2022-11-24T11:34:05.508Z,92.02
2022-11-24T11:36:56.321Z,90.46
2022-11-24T11:39:29.892Z,90.58
2022-11-24T11:42:37.871Z,91.26
2022-11-24T11:45:21.065Z,91.93
2022-11-24T11:48:01.068Z,91.11
2022-11-24T11:53:56.830Z,91.09
2022-11-24T11:56:31.216Z,91.42
2022-11-24T11:59:18.480Z,92.35
2022-11-24T12:01:57.809Z,90.57
2022-11-24T12:04:42.579Z,90.54
2022-11-24T12:07:42.409Z,90.17
2022-11-24T12:10:14.354Z,91.08
2022-11-24T12:13:10.212Z,90.47
2022-11-24T12:15:43.118Z,92.38
2022-11-24T12:21:31.895Z,92.23
2022-11-24T12:24:22.213Z,90.78
2022-11-24T12:26:58.177Z,90.64
2022-11-24T12:29:34.649Z,90.99
2022-11-24T12:32:36.664Z,89.67
2022-11-24T12:35:07.112Z,90.12
2022-11-24T12:37:56.948Z,90.58
2022-11-24T12:40:46.619Z,90.19
2022-11-24T12:43:36.893Z,89.61
2022-11-24T12:46:29.264Z,90.57
2022-11-24T12:49:19.160Z,89.75
2022-11-24T12:51:58.097Z,90.36
2022-11-24T12:54:33.764Z,91.05
2022-11-24T12:57:11.163Z,89.85
2022-11-24T12:59:46.209Z,89.64
2022-11-24T13:02:52.917Z,89.08
2022-11-24T13:05:46.992Z,88.87
2022-11-24T13:08:16.107Z,90.43
2022-11-24T13:10:59.320Z,88.53
2022-11-24T13:13:48.973Z,89.28
2022-11-24T13:19:15.071Z,89.86
2022-11-24T13:21:43.008Z,88.12
2022-11-24T13:26:51.340Z,87.30
2022-11-24T13:29:25.449Z,86.73
2022-11-24T13:32:23.065Z,86.91
2022-11-24T13:34:54.904Z,85.79
2022-11-24T13:37:31.784Z,87.14
2022-11-24T13:40:23.775Z,86.96
2022-11-24T13:42:57.748Z,86.32
2022-11-24T13:45:54.560Z,86.23
2022-11-24T13:48:28.193Z,86.58
2022-11-24T13:50:58.589Z,86.36
2022-11-24T13:53:29.318Z,86.68
2022-11-24T13:56:03.147Z,86.22
2022-11-24T13:58:40.448Z,85.19
2022-11-24T14:01:29.435Z,85.17
2022-11-24T14:04:28.631Z,85.34
2022-11-24T14:06:53.871Z,85.85
2022-11-24T14:09:33.928Z,85.82
2022-11-24T14:12:12.132Z,85.51
2022-11-24T14:14:41.479Z,86.04
2022-11-24T14:17:18.716Z,86.12
2022-11-24T14:19:49.371Z,86.50
2022-11-24T14:22:40.039Z,85.87
2022-11-24T14:25:26.598Z,85.22
2022-11-24T14:27:54.299Z,86.03
2022-11-24T14:30:24.315Z,86.42
2022-11-24T14:32:59.669Z,85.25
2022-11-24T14:35:43.224Z,86.00
2022-11-24T14:38:12.437Z,86.52
2022-11-24T14:40:47.102Z,86.52
2022-11-24T14:43:21.504Z,86.93
2022-11-24T14:45:55.837Z,86.29
2022-11-24T14:48:36.971Z,86.09
2022-11-24T14:51:20.071Z,86.42
2022-11-24T14:53:52.391Z,86.27
2022-11-24T14:56:32.903Z,86.62
2022-11-24T14:59:00.959Z,86.09
2022-11-24T15:01:35.040Z,86.24
2022-11-24T15:04:32.450Z,86.74
2022-11-24T15:07:25.808Z,85.38
2022-11-24T15:09:58.189Z,86.06
2022-11-24T15:12:40.512Z,86.51
2022-11-24T15:15:13.740Z,86.67
2022-11-24T15:17:58.679Z,87.11
2022-11-24T15:20:37.966Z,86.88
2022-11-24T15:23:23.830Z,87.27
2022-11-24T15:25:53.974Z,87.97
2022-11-24T15:28:28.116Z,87.71
2022-11-24T15:31:04.595Z,88.33
2022-11-24T15:33:32.603Z,87.71
2022-11-24T15:36:00.099Z,87.86
2022-11-24T15:38:27.788Z,87.77
2022-11-24T15:40:58.937Z,88.14
2022-11-24T15:43:34.246Z,87.98
2022-11-24T15:46:03.451Z,86.83
2022-11-24T15:48:31.389Z,87.61
2022-11-24T15:51:01.638Z,87.62
2022-11-24T15:53:29.548Z,87.53
2022-11-24T15:55:58.472Z,86.34
2022-11-24T15:58:26.051Z,86.58
2022-11-24T16:00:54.021Z,87.15
2022-11-24T16:03:46.352Z,86.85
2022-11-24T16:06:22.176Z,86.27
2022-11-24T16:08:52.695Z,86.45
2022-11-24T16:11:21.139Z,86.83
2022-11-24T16:13:52.914Z,86.86
2022-11-24T16:16:23.211Z,88.36
2022-11-24T16:18:50.944Z,88.20
2022-11-24T16:21:18.506Z,88.31
2022-11-24T16:23:46.667Z,88.99
2022-11-24T16:26:14.450Z,89.53
2022-11-24T16:28:42.902Z,90.12
2022-11-24T16:31:12.643Z,90.90
2022-11-24T16:33:40.992Z,91.04
2022-11-24T16:36:08.886Z,90.99
2022-11-24T16:38:36.820Z,91.34
2022-11-24T16:41:04.340Z,91.03
2022-11-24T16:43:32.127Z,91.05
2022-11-24T16:46:21.647Z,91.45
2022-11-24T16:48:51.914Z,91.47
2022-11-24T16:51:21.695Z,91.31
2022-11-24T16:53:57.607Z,91.66
2022-11-24T16:56:26.428Z,91.84
2022-11-24T16:58:54.898Z,91.88
2022-11-24T17:01:23.269Z,92.17
2022-11-24T17:03:50.969Z,92.60
2022-11-24T17:06:18.744Z,93.19
2022-11-24T17:08:46.921Z,93.13
2022-11-24T17:11:17.479Z,93.56
2022-11-24T17:13:47.126Z,93.38
2022-11-24T17:16:17.576Z,93.80
2022-11-24T17:18:45.877Z,94.76
2022-11-24T17:21:21.796Z,95.04
2022-11-24T17:23:57.784Z,95.43
2022-11-24T17:26:25.645Z,95.09
2022-11-24T17:28:54.350Z,94.95
2022-11-24T17:31:30.751Z,95.27
2022-11-24T17:34:00.258Z,95.56
2022-11-24T17:36:30.420Z,95.72
2022-11-24T17:39:07.120Z,96.01
2022-11-24T17:41:34.712Z,96.13
2022-11-24T17:44:02.833Z,96.29
2022-11-24T17:46:31.101Z,96.46
2022-11-24T17:48:59.008Z,96.80
2022-11-24T17:51:27.236Z,96.68
2022-11-24T17:53:57.314Z,97.20
2022-11-24T17:56:26.643Z,97.38
2022-11-24T17:58:59.628Z,97.78
2022-11-24T18:01:31.570Z,97.85
2022-11-24T18:03:59.872Z,98.17
2022-11-24T18:06:28.799Z,98.28
2022-11-24T18:08:57.657Z,98.43
2022-11-24T18:11:32.376Z,98.60
2022-11-24T18:14:03.543Z,98.39
2022-11-24T18:16:34.169Z,98.55
2022-11-24T18:19:08.873Z,98.70
2022-11-24T18:21:40.006Z,99.16
2022-11-24T18:24:08.997Z,98.69
2022-11-24T18:26:37.726Z,98.26
2022-11-24T18:29:05.573Z,98.86
2022-11-24T18:31:35.657Z,98.67
2022-11-24T18:34:05.840Z,98.71
2022-11-24T18:36:34.781Z,98.22
2022-11-24T18:39:07.395Z,98.83
2022-11-24T18:41:35.500Z,98.04
2022-11-24T18:44:07.722Z,98.72
2022-11-24T18:46:37.393Z,99.07
2022-11-24T18:49:05.794Z,98.35
2022-11-24T18:51:33.608Z,99.08
2022-11-24T18:54:03.076Z,98.83
2022-11-24T18:56:31.525Z,99.28
2022-11-24T18:58:59.629Z,99.39
2022-11-24T19:01:29.007Z,99.33
2022-11-24T19:04:00.526Z,99.17
2022-11-24T19:06:32.773Z,99.31
2022-11-24T19:09:03.310Z,99.44
2022-11-24T19:11:35.339Z,99.10
2022-11-24T19:14:04.632Z,99.32
2022-11-24T19:16:33.386Z,99.94
2022-11-24T19:19:02.735Z,99.75
2022-11-24T19:21:32.823Z,100.00
2022-11-24T19:24:05.285Z,99.79
2022-11-24T19:26:37.515Z,99.61
2022-11-24T19:29:06.965Z,99.90
2022-11-24T19:31:38.352Z,99.65
2022-11-24T19:34:08.063Z,99.90
2022-11-24T19:36:36.266Z,100.00
2022-11-24T19:39:05.266Z,100.00
2022-11-24T19:41:34.245Z,100.00
2022-11-24T19:44:02.359Z,99.92
2022-11-24T19:46:30.234Z,99.75
2022-11-24T19:49:02.345Z,100.00
2022-11-24T19:51:33.661Z,99.72
2022-11-24T19:54:02.750Z,99.64
2022-11-24T19:56:34.184Z,99.31
2022-11-24T19:59:05.459Z,99.49
2022-11-24T20:01:40.258Z,99.61
2022-11-24T20:04:11.614Z,99.44
2022-11-24T20:06:41.815Z,99.95
2022-11-24T20:09:12.321Z,99.56
2022-11-24T20:11:40.391Z,99.34
2022-11-24T20:14:11.719Z,99.27
2022-11-24T20:16:40.590Z,98.79
2022-11-24T20:19:12.122Z,98.43
2022-11-24T20:21:41.548Z,99.31
2022-11-24T20:24:18.611Z,98.79
2022-11-24T20:26:52.039Z,98.82
2022-11-24T20:29:20.111Z,98.52
2022-11-24T20:31:53.098Z,98.57
2022-11-24T20:34:22.221Z,98.73
2022-11-24T20:36:53.267Z,98.91
2022-11-24T20:39:25.494Z,98.35
2022-11-24T20:41:55.456Z,98.72
2022-11-24T20:44:24.916Z,98.37
2022-11-24T20:46:55.409Z,98.35
2022-11-24T20:49:23.359Z,98.26
2022-11-24T20:51:54.576Z,98.10
2022-11-24T20:54:22.855Z,98.79
2022-11-24T20:56:50.771Z,98.70
2022-11-24T20:59:21.585Z,99.18
2022-11-24T21:01:51.654Z,98.70
2022-11-24T21:04:22.644Z,98.92
2022-11-24T21:06:50.816Z,98.15
2022-11-24T21:09:19.080Z,98.67
2022-11-24T21:11:46.802Z,98.11
2022-11-24T21:14:14.791Z,97.44
2022-11-24T21:16:43.097Z,97.92
2022-11-24T21:19:13.893Z,98.00
2022-11-24T21:21:42.764Z,98.25
2022-11-24T21:24:13.496Z,98.47
2022-11-24T21:26:42.519Z,98.51
2022-11-24T21:29:15.063Z,97.63
2022-11-24T21:31:42.719Z,98.14
2022-11-24T21:34:15.240Z,97.66
2022-11-24T21:36:45.158Z,97.16
2022-11-24T21:39:14.416Z,97.98
2022-11-24T21:41:43.270Z,97.59
2022-11-24T21:44:12.913Z,97.84
2022-11-24T21:46:47.860Z,97.37
2022-11-24T21:49:16.913Z,97.77
2022-11-24T21:51:44.757Z,97.23
2022-11-24T21:54:12.142Z,97.26
2022-11-24T21:56:39.605Z,97.56
2022-11-24T21:59:07.456Z,98.11
2022-11-24T22:01:34.996Z,98.39
2022-11-24T22:04:02.859Z,98.20
2022-11-24T22:06:30.320Z,97.71
2022-11-24T22:08:57.776Z,97.60
2022-11-24T22:11:25.884Z,98.38
2022-11-24T22:13:53.792Z,98.11
2022-11-24T22:16:23.391Z,97.98
2022-11-24T22:18:51.632Z,98.07
2022-11-24T22:21:25.596Z,97.71
2022-11-24T22:23:53.433Z,98.86
2022-11-24T22:26:22.785Z,98.79
2022-11-24T22:28:50.912Z,98.28
2022-11-24T22:31:21.679Z,98.94
2022-11-24T22:33:49.996Z,98.90
2022-11-24T22:36:20.920Z,99.07
2022-11-24T22:38:54.245Z,98.66
2022-11-24T22:41:22.080Z,98.51
2022-11-24T22:43:50.576Z,98.34
2022-11-24T22:46:23.707Z,98.51
2022-11-24T22:48:53.002Z,98.45
2022-11-24T22:51:24.568Z,98.93
2022-11-24T22:53:57.682Z,98.61
2022-11-24T22:56:27.868Z,99.39
2022-11-24T22:58:55.828Z,99.09
2022-11-24T23:01:24.844Z,99.48
2022-11-24T23:03:56.247Z,99.53
2022-11-24T23:06:26.652Z,99.41
2022-11-24T23:08:55.216Z,99.59
2022-11-24T23:11:31.682Z,99.51
2022-11-24T23:14:03.497Z,99.60
2022-11-24T23:16:31.190Z,99.56
2022-11-24T23:18:58.783Z,99.39
2022-11-24T23:21:29.544Z,99.60
2022-11-24T23:23:59.796Z,99.64
2022-11-24T23:26:30.691Z,99.84
2022-11-24T23:28:58.356Z,99.74
2022-11-24T23:31:28.765Z,100.00
2022-11-24T23:34:02.011Z,99.78
2022-11-24T23:36:30.840Z,99.91
2022-11-24T23:39:03.684Z,99.80
2022-11-24T23:41:31.878Z,100.00
2022-11-24T23:44:00.220Z,99.95
2022-11-24T23:46:28.236Z,100.00
2022-11-24T23:48:56.343Z,100.00
2022-11-24T23:51:27.252Z,100.00
2022-11-24T23:53:55.209Z,100.00
2022-11-24T23:56:25.119Z,100.00
2022-11-24T23:58:52.920Z,100.00
